createdAt,value
2023-01-18T00:03:01.286Z,989.7
2023-01-18T00:08:41.550Z,989.6
2023-01-18T00:14:21.981Z,989.7
2023-01-18T00:20:03.950Z,989.7
2023-01-18T00:25:44.294Z,989.8
2023-01-18T00:31:24.822Z,989.8
2023-01-18T00:37:06.022Z,989.9
2023-01-18T00:43:07.356Z,989.9
2023-01-18T00:48:47.314Z,990
2023-01-18T00:54:27.986Z,989.9
2023-01-18T01:00:08.075Z,989.9
2023-01-18T01:05:48.065Z,989.9
2023-01-18T01:11:28.714Z,989.9
2023-01-18T01:17:08.724Z,990
2023-01-18T01:22:48.746Z,990
2023-01-18T01:28:32.030Z,990
2023-01-18T01:34:12.067Z,990.2
2023-01-18T01:39:52.043Z,990.2
2023-01-18T01:45:41.247Z,990.2
2023-01-18T01:51:21.226Z,990.2
2023-01-18T01:57:01.318Z,990.2
2023-01-18T02:02:41.818Z,990.2
2023-01-18T02:08:22.512Z,990.3
2023-01-18T02:14:03.176Z,990.3
2023-01-18T02:24:47.498Z,990.4
2023-01-18T02:30:27.694Z,990.5
2023-01-18T02:36:10.685Z,990.5
2023-01-18T02:41:50.928Z,990.5
2023-01-18T02:47:40.087Z,990.5
2023-01-18T02:53:20.415Z,990.6
2023-01-18T02:59:00.346Z,990.7
2023-01-18T03:04:40.386Z,990.7
2023-01-18T03:10:20.493Z,990.7
2023-01-18T03:16:00.878Z,990.8
2023-01-18T03:21:41.250Z,990.8
2023-01-18T03:27:21.224Z,990.8
2023-01-18T03:33:01.315Z,990.8
2023-01-18T03:38:41.556Z,990.9
2023-01-18T03:44:24.218Z,990.9
2023-01-18T03:50:09.740Z,991
2023-01-18T03:55:49.950Z,991.1
2023-01-18T04:01:30.446Z,991.1
2023-01-18T04:07:11.599Z,991.1
2023-01-18T04:12:51.871Z,991.2
2023-01-18T04:18:31.935Z,991.2
2023-01-18T04:24:12.199Z,991.3
2023-01-18T04:29:52.368Z,991.3
2023-01-18T04:41:44.931Z,991.4
2023-01-18T04:47:31.088Z,991.5
2023-01-18T04:53:11.791Z,991.5
2023-01-18T04:58:52.095Z,991.6
2023-01-18T05:04:32.105Z,991.7
2023-01-18T05:10:12.329Z,991.8
2023-01-18T05:21:50.417Z,991.9
2023-01-18T05:27:30.475Z,992
2023-01-18T05:33:10.392Z,992
2023-01-18T05:38:50.557Z,992.1
2023-01-18T05:44:30.411Z,992.2
2023-01-18T05:50:11.097Z,992.3
2023-01-18T05:55:51.459Z,992.4
2023-01-18T06:01:31.877Z,992.5
2023-01-18T06:07:12.301Z,992.5
2023-01-18T06:12:53.515Z,992.6
2023-01-18T06:18:36.703Z,992.7
2023-01-18T06:24:16.707Z,992.8
2023-01-18T06:29:57.158Z,992.8
2023-01-18T06:35:37.624Z,992.9
2023-01-18T07:19:36.884Z,992.9
2023-01-18T07:25:18.246Z,993.5
2023-01-18T07:30:58.688Z,993.5
2023-01-18T07:36:39.665Z,993.7
2023-01-18T07:42:19.993Z,993.8
2023-01-18T07:47:59.985Z,993.9
2023-01-18T07:53:42.752Z,994
2023-01-18T07:59:32.138Z,994
2023-01-18T08:05:12.559Z,994
2023-01-18T08:10:53.199Z,994.1
2023-01-18T08:16:33.969Z,994.2
2023-01-18T08:22:13.874Z,994.3
2023-01-18T08:27:53.886Z,994.4
2023-01-18T08:33:34.434Z,994.5
2023-01-18T08:44:18.850Z,994.6
2023-01-18T08:49:59.303Z,994.6
2023-01-18T08:55:39.276Z,994.8
2023-01-18T09:01:20.305Z,994.8
2023-01-18T09:07:01.774Z,994.9
2023-01-18T09:12:42.140Z,995
2023-01-18T09:18:22.216Z,995.1
2023-01-18T09:24:02.578Z,995.1
2023-01-18T09:29:42.916Z,995.2
2023-01-18T09:35:23.160Z,995.3
2023-01-18T09:41:03.492Z,995.3
2023-01-18T09:46:44.172Z,995.4
2023-01-18T09:52:24.919Z,995.6
2023-01-18T09:58:05.215Z,995.7
2023-01-18T10:09:32.180Z,995.7
2023-01-18T10:15:13.110Z,995.7
2023-01-18T10:20:53.346Z,995.8
2023-01-18T10:26:33.765Z,995.8
2023-01-18T10:32:14.076Z,995.9
2023-01-18T10:38:02.205Z,995.8
2023-01-18T10:43:42.769Z,995.8
2023-01-18T10:49:23.140Z,995.9
2023-01-18T10:55:03.292Z,996
2023-01-18T11:00:43.918Z,996
2023-01-18T11:11:29.653Z,996
2023-01-18T11:17:09.914Z,996.1
2023-01-18T11:22:50.522Z,996.2
2023-01-18T11:28:30.836Z,996.2
2023-01-18T11:34:11.282Z,996.1
2023-01-18T11:39:51.380Z,996.1
2023-01-18T11:45:31.765Z,996.1
2023-01-18T11:51:12.778Z,996.2
2023-01-18T11:56:52.935Z,996.2
2023-01-18T12:02:33.845Z,996.2
2023-01-18T12:08:14.790Z,996.2
2023-01-18T12:13:55.048Z,996.2
2023-01-18T12:19:35.433Z,996.2
2023-01-18T12:25:15.601Z,996.3
2023-01-18T12:30:56.322Z,996.3
2023-01-18T12:36:36.477Z,996.2
2023-01-18T12:42:16.681Z,996.3
2023-01-18T12:47:59.050Z,996.3
2023-01-18T12:58:45.990Z,996.3
2023-01-18T13:09:31.714Z,996.5
2023-01-18T13:15:12.305Z,996.5
2023-01-18T13:20:52.924Z,996.5
2023-01-18T13:26:33.088Z,996.5
2023-01-18T13:32:13.217Z,996.6
2023-01-18T13:37:57.010Z,996.7
2023-01-18T13:43:39.276Z,996.7
2023-01-18T13:49:38.924Z,996.7
2023-01-18T13:55:19.540Z,996.7
2023-01-18T14:01:11.938Z,996.9
2023-01-18T14:06:53.070Z,996.9
2023-01-18T14:12:33.319Z,997
2023-01-18T14:18:24.894Z,997.1
2023-01-18T14:24:05.521Z,997.1
2023-01-18T14:29:45.985Z,997.1
2023-01-18T14:35:26.978Z,997.2
2023-01-18T14:41:07.466Z,997.3
2023-01-18T14:46:50.390Z,997.3
2023-01-18T14:52:30.800Z,997.3
2023-01-18T14:58:11.171Z,997.4
2023-01-18T15:03:54.177Z,997.4
2023-01-18T15:09:34.365Z,997.4
2023-01-18T15:15:15.042Z,997.4
2023-01-18T15:20:56.080Z,997.5
2023-01-18T15:26:39.262Z,997.6
2023-01-18T15:32:19.585Z,997.7
2023-01-18T15:38:12.324Z,997.7
2023-01-18T15:43:52.515Z,997.8
2023-01-18T15:49:32.741Z,997.9
2023-01-18T15:55:13.128Z,997.9
2023-01-18T16:00:53.814Z,997.9
2023-01-18T16:06:35.388Z,997.9
2023-01-18T16:12:16.096Z,998
2023-01-18T16:17:57.796Z,998
2023-01-18T16:23:42.627Z,998.1
2023-01-18T16:29:22.970Z,998.2
2023-01-18T16:35:12.475Z,998.2
2023-01-18T16:40:52.745Z,998.3
2023-01-18T16:46:32.893Z,998.3
2023-01-18T16:52:13.142Z,998.3
2023-01-18T16:57:53.732Z,998.3
2023-01-18T17:03:34.450Z,998.4
2023-01-18T17:09:15.117Z,998.4
2023-01-18T17:14:55.414Z,998.5
2023-01-18T17:25:40.316Z,998.6
2023-01-18T17:31:21.424Z,998.6
2023-01-18T17:37:01.788Z,998.6
2023-01-18T17:42:42.128Z,998.7
2023-01-18T17:48:31.729Z,998.6
2023-01-18T17:54:52.739Z,998.7
2023-01-18T18:00:32.733Z,998.8
2023-01-18T18:06:31.822Z,998.8
2023-01-18T18:12:26.612Z,999
2023-01-18T18:18:34.444Z,999
2023-01-18T18:24:15.438Z,999
2023-01-18T18:29:58.199Z,999.1
2023-01-18T18:35:38.162Z,999.2
2023-01-18T18:41:18.696Z,999.2
2023-01-18T18:46:59.197Z,999.3
2023-01-18T18:52:48.951Z,999.5
2023-01-18T18:58:29.678Z,999.5
2023-01-18T19:04:10.406Z,999.6
2023-01-18T19:09:50.442Z,999.7
2023-01-18T19:15:31.910Z,999.7
2023-01-18T19:21:17.429Z,999.7
2023-01-18T19:27:36.929Z,999.8
2023-01-18T19:33:17.936Z,999.9
2023-01-18T19:39:01.318Z,999.9
2023-01-18T19:44:45.313Z,999.9
2023-01-18T19:50:26.377Z,1000
2023-01-18T20:01:37.430Z,1000.1
2023-01-18T20:07:19.992Z,1000.1
2023-01-18T20:13:01.839Z,1000.1
2023-01-18T20:18:48.309Z,1000.2
2023-01-18T20:24:31.236Z,1000.2
2023-01-18T20:30:11.341Z,1000.3
2023-01-18T20:35:51.450Z,1000.4
2023-01-18T20:41:31.602Z,1000.5
2023-01-18T20:47:11.941Z,1000.4
2023-01-18T20:52:52.544Z,1000.6
2023-01-18T20:58:41.490Z,1000.5
2023-01-18T21:04:23.107Z,1000.6
2023-01-18T21:10:04.008Z,1000.7
2023-01-18T21:15:44.409Z,1000.8
2023-01-18T21:21:26.793Z,1000.8
2023-01-18T21:27:07.294Z,1000.8
2023-01-18T21:32:47.545Z,1000.9
2023-01-18T21:38:27.913Z,1000.9
2023-01-18T21:44:12.737Z,1000.9
2023-01-18T21:50:19.476Z,1000.9
2023-01-18T21:56:00.020Z,1000.9
2023-01-18T22:01:40.338Z,1000.9
2023-01-18T22:12:54.720Z,1001
2023-01-18T22:18:35.546Z,1001
2023-01-18T22:29:20.596Z,1001.2
2023-01-18T22:40:05.960Z,1001.2
2023-01-18T22:45:55.126Z,1001.3
2023-01-18T22:51:35.719Z,1001.3
2023-01-18T22:57:16.062Z,1001.4
2023-01-18T23:02:56.600Z,1001.4
2023-01-18T23:08:36.969Z,1001.4
2023-01-18T23:14:17.140Z,1001.4
2023-01-18T23:19:57.992Z,1001.4
2023-01-18T23:30:44.502Z,1001.5
2023-01-18T23:41:33.321Z,1001.5
2023-01-18T23:47:13.644Z,1001.5
2023-01-18T23:52:54.021Z,1001.6
2023-01-18T23:58:44.264Z,1001.6
